Terminal Aerodrome Forecast
Issued by NWS

Home | Current Version | Previous Version | Text Only | Print | Product List | Glossary On
Versions: 1 2 3 4 5 6 7 8 9 10 11 12 13 14 15 16 17 18 19 20 21 22
000
FTUS41 KBUF 112145 AAA
TAFJHW
TAF AMD
KJHW 112145Z 1122/1218 22006KT P6SM -SN OVC010
     FM112300 19008KT P6SM OVC007
     FM120000 18005KT 2SM -SN OVC007
     FM120300 18009KT 2SM -SN OVC003
     FM121200 26008KT 2SM -SN OVC007
     FM121600 29015G25KT 2SM -SN OVC007
      AMD LTD TO CLD VIS AND WIND=

USA.gov is the U.S. government's official web portal to all federal, state and local government web resources and services.